Time;durP1;ratioP1;P1;durP2;ratioP2;P2;SDS_P1;SDS_P2;PMS_P1;PMS_P2;Temp;Humidity;BMP_temperature;BMP_pressure;BME280_temperature;BME280_humidity;BME280_pressure;Samples;Min_cycle;Max_cycle;Signal;HPM_P1;HPM_P2
2022/09/07 00:00:00;;;;;;;3.25;2.22;;;;;;;20.01;94.01;98317.34;4160696;28;20647;-50
2022/09/07 00:02:02;;;;;;;3.97;2.30;;;;;;;20.20;92.80;98316.06;4173665;28;20208;-50
2022/09/07 00:04:05;;;;;;;13.13;2.15;;;;;;;20.32;92.36;98323.81;4186911;28;20247;-48
2022/09/07 00:06:08;;;;;;;5.20;2.20;;;;;;;20.34;92.31;98313.19;4155293;28;20216;-50
2022/09/07 00:08:11;;;;;;;6.40;3.88;;;;;;;20.09;94.07;98298.00;4163407;28;20246;-50
2022/09/07 00:10:13;;;;;;;7.43;3.35;;;;;;;19.93;95.38;98304.22;4171330;28;20578;-48
2022/09/07 00:12:15;;;;;;;6.63;2.92;;;;;;;19.98;95.06;98301.31;4172112;28;20203;-48
2022/09/07 00:14:16;;;;;;;5.60;2.28;;;;;;;20.04;94.65;98305.63;4154431;28;20220;-49
2022/09/07 00:16:21;;;;;;;5.40;3.10;;;;;;;20.11;93.89;98314.34;4158344;28;20276;-48
2022/09/07 00:18:24;;;;;;;5.55;2.53;;;;;;;20.23;93.92;98306.25;4169563;28;20266;-48
2022/09/07 00:20:26;;;;;;;5.88;2.35;;;;;;;19.91;95.89;98289.81;4159138;28;20201;-48
2022/09/07 00:22:27;;;;;;;5.72;2.60;;;;;;;20.02;94.56;98278.13;4170285;28;20697;-48
2022/09/07 00:24:29;;;;;;;6.57;2.85;;;;;;;20.03;95.41;98271.44;4159253;28;20255;-48
2022/09/07 00:26:31;;;;;;;4.97;3.17;;;;;;;20.03;95.57;98267.81;4162768;28;20209;-48
2022/09/07 00:28:34;;;;;;;6.68;2.65;;;;;;;20.00;95.21;98260.97;4153419;28;20693;-48
2022/09/07 00:30:40;;;;;;;7.90;2.45;;;;;;;20.04;94.74;98244.50;4159880;28;20688;-50
2022/09/07 00:32:42;;;;;;;5.05;2.65;;;;;;;20.20;94.40;98226.28;4155852;28;20287;-49
2022/09/07 00:34:43;;;;;;;9.80;2.47;;;;;;;20.01;95.11;98217.31;4162693;28;20235;-48
2022/09/07 00:36:45;;;;;;;4.88;2.40;;;;;;;20.04;95.02;98223.06;4170891;28;20600;-49
2022/09/07 00:38:47;;;;;;;5.32;2.78;;;;;;;20.12;94.53;98218.75;4161139;28;20225;-49
2022/09/07 00:40:49;;;;;;;5.07;3.05;;;;;;;19.98;94.95;98217.97;4184657;28;20699;-48
2022/09/07 00:42:51;;;;;;;5.75;2.42;;;;;;;20.05;94.49;98223.91;4151719;28;20208;-48
2022/09/07 00:45:17;;;;;;;5.65;2.85;;;;;;;20.12;93.94;98235.41;4156732;28;20582;-49
2022/09/07 00:47:26;;;;;;;6.13;2.30;;;;;;;20.20;93.79;98287.44;4168877;28;20631;-47
2022/09/07 00:49:28;;;;;;;4.20;1.90;;;;;;;20.32;93.90;98344.06;4161261;28;20283;-49
2022/09/07 00:51:34;;;;;;;3.00;2.38;;;;;;;20.07;96.32;98360.56;4171266;28;20228;-48
2022/09/07 00:53:39;;;;;;;8.10;2.15;;;;;;;19.98;97.02;98387.44;4156571;28;20209;-48
2022/09/07 00:55:43;;;;;;;5.35;2.53;;;;;;;19.59;99.35;98434.44;4185860;28;20227;-49
2022/09/07 00:57:48;;;;;;;8.23;3.33;;;;;;;19.33;100.00;98438.84;4159840;28;20224;-47
2022/09/07 00:59:51;;;;;;;4.25;3.83;;;;;;;18.85;100.00;98420.91;4152370;28;20213;-45
2022/09/07 01:01:53;;;;;;;10.52;3.15;;;;;;;18.76;100.00;98406.09;4150731;28;20276;-46
2022/09/07 01:03:56;;;;;;;6.05;3.45;;;;;;;18.77;100.00;98402.22;4136619;28;20236;-46
2022/09/07 01:06:31;;;;;;;6.47;2.97;;;;;;;18.84;100.00;98388.75;4154153;28;20213;-46
2022/09/07 01:08:34;;;;;;;5.85;2.92;;;;;;;18.77;100.00;98364.19;4119050;28;20229;-45
2022/09/07 01:10:37;;;;;;;4.82;3.58;;;;;;;18.86;100.00;98358.75;4161066;28;20215;-46
2022/09/07 01:12:39;;;;;;;5.85;3.35;;;;;;;19.07;100.00;98368.31;4170431;28;20212;-45
2022/09/07 01:14:44;;;;;;;3.22;2.95;;;;;;;19.10;100.00;98376.00;4160694;28;20228;-46
2022/09/07 01:16:58;;;;;;;3.03;2.58;;;;;;;19.09;100.00;98355.78;4152495;28;20264;-46
2022/09/07 01:19:25;;;;;;;7.50;3.45;;;;;;;18.97;100.00;98335.25;4185824;28;20223;-47
2022/09/07 01:21:30;;;;;;;4.90;2.97;;;;;;;19.16;100.00;98342.31;4186116;28;20215;-48
2022/09/07 01:23:34;;;;;;;5.30;3.28;;;;;;;19.35;100.00;98331.13;4154020;28;20244;-46
2022/09/07 01:25:54;;;;;;;3.47;2.55;;;;;;;19.03;100.00;98328.44;4154037;28;20209;-46
2022/09/07 01:28:18;;;;;;;3.50;2.83;;;;;;;19.13;100.00;98311.59;4153768;28;20236;-46
2022/09/07 01:30:22;;;;;;;3.53;2.33;;;;;;;18.99;100.00;98310.78;4141246;28;20260;-45
2022/09/07 01:32:33;;;;;;;4.40;2.97;;;;;;;18.88;100.00;98309.34;4170756;28;20295;-48
2022/09/07 01:34:36;;;;;;;3.83;2.55;;;;;;;19.00;100.00;98313.28;4170848;28;20224;-46
2022/09/07 01:37:04;;;;;;;3.38;2.65;;;;;;;18.99;100.00;98305.25;4168444;28;20204;-48
2022/09/07 01:39:05;;;;;;;3.00;2.28;;;;;;;19.15;100.00;98306.56;4184762;28;20224;-47
2022/09/07 01:41:29;;;;;;;3.55;2.30;;;;;;;19.13;100.00;98298.53;4169274;28;20765;-46
2022/09/07 01:43:46;;;;;;;3.00;2.00;;;;;;;19.05;100.00;98290.16;4138394;28;20213;-46
2022/09/07 01:45:48;;;;;;;4.88;2.42;;;;;;;19.03;100.00;98295.16;4167809;28;20255;-46
2022/09/07 01:47:53;;;;;;;2.53;1.77;;;;;;;19.00;100.00;98301.34;4175265;28;20748;-46
2022/09/07 01:50:01;;;;;;;2.20;1.67;;;;;;;19.16;100.00;98306.25;4160981;28;20201;-48
2022/09/07 01:52:13;;;;;;;2.13;1.73;;;;;;;18.91;100.00;98303.22;4154945;28;20211;-47
2022/09/07 01:54:24;;;;;;;2.58;1.48;;;;;;;18.89;100.00;98294.34;4151664;28;20232;-47
2022/09/07 01:56:33;;;;;;;2.47;1.60;;;;;;;18.88;100.00;98299.09;4151217;28;20212;-47
2022/09/07 01:58:48;;;;;;;1.77;1.30;;;;;;;19.04;100.00;98302.38;4168453;28;20227;-46
2022/09/07 02:01:31;;;;;;;3.90;1.60;;;;;;;18.99;100.00;98297.72;4171325;28;20228;-46
2022/09/07 02:03:42;;;;;;;1.42;1.10;;;;;;;19.13;100.00;98311.59;4185970;28;20633;-47
2022/09/07 02:05:57;;;;;;;3.83;1.45;;;;;;;19.23;100.00;98300.31;4167519;28;20199;-47
2022/09/07 02:08:15;;;;;;;2.40;1.27;;;;;;;19.38;100.00;98302.75;4158088;28;20587;-47
2022/09/07 02:10:24;;;;;;;2.97;1.38;;;;;;;19.43;99.69;98299.84;4154976;28;20221;-47
2022/09/07 02:12:33;;;;;;;2.47;1.05;;;;;;;19.18;99.91;98297.63;4159859;28;20598;-47
2022/09/07 02:14:38;;;;;;;1.50;1.40;;;;;;;19.12;100.00;98294.13;4167603;28;20230;-47
2022/09/07 02:16:57;;;;;;;2.78;1.58;;;;;;;19.29;100.00;98293.50;4160876;28;20212;-47
2022/09/07 02:19:03;;;;;;;2.08;1.20;;;;;;;19.23;99.47;98283.66;4154702;28;20229;-47
2022/09/07 02:21:07;;;;;;;1.95;1.23;;;;;;;19.32;99.60;98284.59;4170982;28;20212;-47
2022/09/07 02:23:13;;;;;;;3.08;1.77;;;;;;;19.34;99.31;98285.09;4168926;28;20259;-47
2022/09/07 02:25:25;;;;;;;2.67;1.67;;;;;;;19.35;99.03;98278.41;4153339;28;20240;-49
2022/09/07 02:27:33;;;;;;;4.18;1.50;;;;;;;19.36;98.67;98283.63;4170901;28;20481;-48
2022/09/07 02:29:35;;;;;;;5.22;1.60;;;;;;;19.15;99.72;98295.47;4159458;28;20204;-47
2022/09/07 02:31:37;;;;;;;2.33;1.45;;;;;;;19.18;100.00;98286.53;4144597;28;20729;-48
2022/09/07 02:33:39;;;;;;;3.13;1.58;;;;;;;19.29;99.31;98287.97;4162602;28;20260;-47
2022/09/07 02:35:40;;;;;;;1.73;1.48;;;;;;;19.33;99.27;98294.53;4180118;28;20227;-47
2022/09/07 02:37:43;;;;;;;1.73;1.40;;;;;;;19.31;98.76;98296.81;4160934;28;20228;-47
2022/09/07 02:39:45;;;;;;;3.33;1.98;;;;;;;19.47;98.62;98306.44;4168038;28;20212;-47
2022/09/07 02:41:47;;;;;;;2.63;1.65;;;;;;;18.88;100.00;98301.88;4184606;28;20207;-47
2022/09/07 02:43:48;;;;;;;3.78;1.90;;;;;;;18.74;100.00;98303.81;4169312;28;20248;-48
2022/09/07 02:46:05;;;;;;;3.22;1.55;;;;;;;18.97;100.00;98301.97;4168093;28;20291;-48
2022/09/07 02:48:15;;;;;;;2.90;1.33;;;;;;;18.90;100.00;98301.53;4185540;28;20232;-46
2022/09/07 02:50:29;;;;;;;5.85;2.38;;;;;;;19.11;100.00;98297.22;4152412;28;20205;-47
2022/09/07 02:52:46;;;;;;;4.15;1.92;;;;;;;19.12;100.00;98293.31;4188014;28;20211;-47
2022/09/07 02:55:15;;;;;;;2.20;1.60;;;;;;;19.24;99.42;98304.75;4167130;28;20240;-47
2022/09/07 02:57:35;;;;;;;2.63;1.80;;;;;;;19.20;99.40;98303.72;4170023;28;20215;-47
2022/09/07 02:59:46;;;;;;;2.42;1.80;;;;;;;19.16;99.54;98299.88;4184918;28;20539;-47
2022/09/07 03:01:53;;;;;;;3.25;1.98;;;;;;;19.23;99.11;98294.75;4170164;28;20212;-47
2022/09/07 03:04:17;;;;;;;3.00;1.63;;;;;;;19.13;98.68;98295.75;4169313;28;20215;-48
2022/09/07 03:06:26;;;;;;;1.98;1.70;;;;;;;19.20;98.89;98295.38;4184844;28;20254;-47
2022/09/07 03:08:37;;;;;;;3.33;2.22;;;;;;;18.90;100.00;98290.44;4184311;28;20251;-49
2022/09/07 03:10:39;;;;;;;3.28;1.83;;;;;;;18.68;100.00;98290.34;4150870;28;20204;-49
2022/09/07 03:12:46;;;;;;;2.47;1.98;;;;;;;18.89;100.00;98284.09;4161132;28;20212;-49
2022/09/07 03:14:48;;;;;;;3.20;1.83;;;;;;;18.88;100.00;98281.63;4151245;28;20229;-48
2022/09/07 03:16:52;;;;;;;2.38;2.00;;;;;;;19.04;100.00;98289.31;4152696;28;20244;-49
2022/09/07 03:18:54;;;;;;;2.42;2.22;;;;;;;18.95;100.00;98290.34;4171177;28;20227;-47
2022/09/07 03:20:56;;;;;;;2.58;2.35;;;;;;;19.02;100.00;98285.19;4155844;28;20204;-47
2022/09/07 03:22:57;;;;;;;4.88;2.40;;;;;;;19.14;100.00;98297.44;4183104;28;20964;-47
2022/09/07 03:24:59;;;;;;;3.78;2.17;;;;;;;19.13;100.00;98292.19;4137267;28;20197;-47
2022/09/07 03:27:01;;;;;;;2.75;1.92;;;;;;;19.14;99.89;98296.59;4154755;28;20200;-46
2022/09/07 03:29:03;;;;;;;2.13;1.73;;;;;;;19.17;99.56;98301.53;4154216;28;20221;-48
2022/09/07 03:31:04;;;;;;;3.13;1.75;;;;;;;19.25;99.20;98303.59;4156744;28;20213;-48
2022/09/07 03:33:06;;;;;;;8.55;2.03;;;;;;;19.23;99.13;98300.31;4162499;28;20217;-48
2022/09/07 03:35:08;;;;;;;2.95;1.73;;;;;;;19.29;98.75;98307.38;4143054;28;20225;-49
2022/09/07 03:37:10;;;;;;;1.63;1.52;;;;;;;19.24;98.57;98308.31;4149195;28;20201;-47
2022/09/07 03:39:12;;;;;;;3.60;2.13;;;;;;;19.20;98.47;98303.72;4154813;28;20282;-48
2022/09/07 03:41:14;;;;;;;2.50;1.77;;;;;;;19.19;98.47;98307.59;4184404;28;20670;-47
2022/09/07 03:43:16;;;;;;;3.95;1.80;;;;;;;19.18;98.13;98309.53;4156823;28;20204;-46
2022/09/07 03:45:18;;;;;;;3.92;2.00;;;;;;;19.16;98.03;98305.41;4152047;28;20208;-48
2022/09/07 03:47:19;;;;;;;5.53;1.73;;;;;;;19.20;97.84;98306.50;4162226;28;20359;-48
2022/09/07 03:49:21;;;;;;;2.75;2.00;;;;;;;19.19;97.55;98304.81;4168933;28;20212;-48
2022/09/07 03:51:23;;;;;;;2.08;1.77;;;;;;;19.23;96.57;98305.84;4154666;28;20239;-47
2022/09/07 03:53:25;;;;;;;3.00;1.70;;;;;;;19.22;97.00;98304.22;4170728;28;20267;-49
2022/09/07 03:55:26;;;;;;;2.90;1.80;;;;;;;19.24;97.10;98301.97;4154917;28;20255;-47
2022/09/07 03:57:28;;;;;;;3.13;2.33;;;;;;;19.11;97.30;98314.69;4152007;28;20205;-47
2022/09/07 03:59:30;;;;;;;4.45;2.60;;;;;;;19.11;97.63;98309.13;4153686;28;20205;-47
2022/09/07 04:01:31;;;;;;;2.10;1.88;;;;;;;19.04;97.66;98307.94;4150816;28;20237;-48
2022/09/07 04:03:33;;;;;;;2.10;1.83;;;;;;;19.05;97.93;98307.59;4157698;28;20960;-47
2022/09/07 04:05:35;;;;;;;4.60;2.38;;;;;;;19.04;97.72;98307.94;4148737;28;20975;-47
2022/09/07 04:07:36;;;;;;;4.32;1.73;;;;;;;19.02;97.87;98310.16;4144312;28;20224;-48
2022/09/07 04:09:38;;;;;;;4.68;2.08;;;;;;;18.95;97.89;98309.75;4138272;28;20209;-47
2022/09/07 04:11:41;;;;;;;3.30;1.83;;;;;;;18.98;97.75;98309.16;4159727;28;20216;-47
2022/09/07 04:13:43;;;;;;;3.15;2.08;;;;;;;18.95;97.60;98299.50;4170071;28;20555;-47
2022/09/07 04:15:44;;;;;;;2.75;2.25;;;;;;;19.01;97.44;98311.31;4157624;28;20748;-47
2022/09/07 04:17:47;;;;;;;2.80;1.90;;;;;;;19.00;97.28;98312.44;4168803;28;20584;-47
2022/09/07 04:19:48;;;;;;;2.97;1.90;;;;;;;18.66;99.55;98318.38;4185768;28;20208;-48
2022/09/07 04:21:50;;;;;;;2.88;2.35;;;;;;;18.73;99.58;98306.91;4168015;28;20223;-47
2022/09/07 04:23:52;;;;;;;4.15;1.98;;;;;;;18.72;99.90;98300.50;4158369;28;20209;-47
2022/09/07 04:25:54;;;;;;;2.88;2.28;;;;;;;18.71;99.64;98303.63;4152388;28;20991;-49
2022/09/07 04:27:55;;;;;;;2.45;2.25;;;;;;;18.61;100.00;98309.34;4152401;28;20289;-47
2022/09/07 04:29:57;;;;;;;2.88;2.63;;;;;;;18.57;100.00;98313.88;4160097;28;20212;-48
2022/09/07 04:31:59;;;;;;;5.13;1.83;;;;;;;18.49;100.00;98315.41;4138025;28;20214;-47
2022/09/07 04:34:01;;;;;;;2.33;2.13;;;;;;;18.41;100.00;98306.97;4171793;28;20204;-47
2022/09/07 04:36:03;;;;;;;3.85;2.55;;;;;;;18.44;100.00;98314.69;4171201;28;20224;-47
2022/09/07 04:38:06;;;;;;;2.63;1.77;;;;;;;18.46;100.00;98313.22;4186995;28;20250;-48
2022/09/07 04:40:08;;;;;;;3.15;2.20;;;;;;;18.51;100.00;98315.91;4161859;28;20709;-49
2022/09/07 04:42:10;;;;;;;6.05;2.10;;;;;;;18.59;99.18;98320.72;4159524;28;20236;-49
2022/09/07 04:44:11;;;;;;;2.92;1.92;;;;;;;18.60;98.47;98310.47;4161497;28;20292;-47
2022/09/07 04:46:21;;;;;;;2.33;1.50;;;;;;;18.61;97.99;98304.63;4172796;28;20216;-48
2022/09/07 04:48:23;;;;;;;2.72;2.38;;;;;;;18.63;97.75;98307.09;4169897;28;20228;-48
2022/09/07 04:50:25;;;;;;;3.10;2.10;;;;;;;18.45;98.51;98311.56;4184818;28;20211;-47
2022/09/07 04:52:27;;;;;;;2.78;2.25;;;;;;;18.47;98.63;98314.06;4157576;28;20976;-47
2022/09/07 04:54:28;;;;;;;3.15;2.25;;;;;;;18.46;98.73;98307.69;4157730;28;20244;-47
2022/09/07 04:56:31;;;;;;;4.05;1.83;;;;;;;18.46;98.71;98306.88;4171063;28;20224;-48
2022/09/07 04:58:32;;;;;;;2.38;1.92;;;;;;;18.51;98.41;98315.09;4169047;28;20235;-47
2022/09/07 05:00:36;;;;;;;3.75;2.33;;;;;;;18.53;97.77;98318.38;4168703;28;20298;-49
2022/09/07 05:02:38;;;;;;;3.13;2.25;;;;;;;18.61;97.27;98317.66;4160529;28;20662;-48
2022/09/07 05:04:39;;;;;;;4.63;1.80;;;;;;;18.49;97.51;98318.16;4162891;28;20240;-48
2022/09/07 05:06:41;;;;;;;2.17;2.00;;;;;;;18.45;97.87;98316.31;4188438;28;20703;-47
2022/09/07 05:08:45;;;;;;;3.60;2.25;;;;;;;18.49;97.62;98314.56;4155935;28;20609;-47
2022/09/07 05:10:54;;;;;;;4.28;2.00;;;;;;;18.49;97.58;98314.56;4155536;28;20209;-48
2022/09/07 05:12:56;;;;;;;1.92;1.77;;;;;;;18.47;97.68;98308.50;4158060;28;20240;-49
2022/09/07 05:14:58;;;;;;;3.90;2.13;;;;;;;18.40;97.72;98319.19;4152794;28;20212;-48
2022/09/07 05:17:00;;;;;;;2.13;1.52;;;;;;;18.38;98.15;98326.97;4168155;28;20209;-48
2022/09/07 05:19:03;;;;;;;3.90;2.00;;;;;;;18.35;98.12;98333.13;4169215;28;20318;-48
2022/09/07 05:21:16;;;;;;;2.75;2.08;;;;;;;18.44;97.97;98334.06;4156078;28;20204;-48
2022/09/07 05:23:18;;;;;;;2.97;2.05;;;;;;;18.41;98.25;98342.97;4155226;28;20212;-49
2022/09/07 05:25:20;;;;;;;4.18;2.13;;;;;;;18.46;98.21;98334.59;4154627;28;20244;-50
2022/09/07 05:27:21;;;;;;;3.58;2.25;;;;;;;18.39;98.45;98345.25;4170267;28;20219;-49
2022/09/07 05:29:23;;;;;;;4.38;2.17;;;;;;;18.48;98.13;98349.78;4153097;28;20208;-48
2022/09/07 05:31:45;;;;;;;3.85;2.38;;;;;;;18.43;98.28;98362.88;4161401;28;20220;-48
2022/09/07 05:33:49;;;;;;;5.78;2.13;;;;;;;18.36;98.46;98368.00;4170354;28;20263;-47
2022/09/07 05:36:10;;;;;;;3.83;2.20;;;;;;;18.27;99.25;98359.56;4172183;28;20267;-48
2022/09/07 05:38:12;;;;;;;4.47;2.25;;;;;;;18.27;100.00;98369.81;4159394;28;20225;-48
2022/09/07 05:40:14;;;;;;;3.47;1.83;;;;;;;18.28;100.00;98365.91;4160145;28;20205;-47
2022/09/07 05:42:16;;;;;;;2.53;2.15;;;;;;;18.37;100.00;98369.66;4157160;28;20209;-48
2022/09/07 05:44:18;;;;;;;8.52;2.20;;;;;;;18.11;100.00;98371.19;4157222;28;20252;-47
2022/09/07 05:46:39;;;;;;;4.47;2.13;;;;;;;18.33;100.00;98368.63;4160140;28;20212;-48
2022/09/07 05:48:41;;;;;;;7.88;2.05;;;;;;;18.47;100.00;98372.25;4155257;28;20225;-48
2022/09/07 05:50:50;;;;;;;3.65;2.58;;;;;;;18.65;100.00;98371.38;4154580;28;20209;-48
2022/09/07 05:52:52;;;;;;;2.72;2.47;;;;;;;18.91;100.00;98369.75;4187814;28;20203;-48
2022/09/07 05:54:54;;;;;;;3.75;2.55;;;;;;;19.12;99.98;98368.22;4154207;28;20207;-48
2022/09/07 05:57:15;;;;;;;3.13;2.42;;;;;;;19.52;100.00;98367.41;4169129;28;20240;-49
2022/09/07 05:59:17;;;;;;;5.32;2.25;;;;;;;19.78;100.00;98376.81;4151919;28;20255;-48
2022/09/07 06:01:19;;;;;;;2.60;2.08;;;;;;;19.95;99.01;98380.56;4155659;28;20212;-48
2022/09/07 06:03:20;;;;;;;7.55;2.17;;;;;;;20.07;97.27;98382.78;4156094;28;20222;-48
2022/09/07 06:05:22;;;;;;;3.92;2.95;;;;;;;20.34;97.06;98377.13;4167202;28;20203;-47
2022/09/07 06:07:24;;;;;;;1.88;1.73;;;;;;;20.39;97.48;98377.00;4159175;28;20205;-48
2022/09/07 06:09:26;;;;;;;4.95;1.98;;;;;;;20.47;97.20;98381.78;4159042;28;20200;-48
2022/09/07 06:11:31;;;;;;;3.72;1.92;;;;;;;20.32;96.16;98380.22;4156219;28;20256;-49
2022/09/07 06:13:33;;;;;;;6.18;1.65;;;;;;;20.18;95.85;98385.00;4170756;28;20208;-48
2022/09/07 06:15:35;;;;;;;2.00;1.30;;;;;;;19.83;96.31;98382.22;4159539;28;20323;-48
2022/09/07 06:17:36;;;;;;;4.80;2.25;;;;;;;19.72;97.56;98380.81;4176911;28;20208;-47
2022/09/07 06:19:38;;;;;;;4.35;2.03;;;;;;;19.61;97.78;98393.28;4140145;28;20236;-48
2022/09/07 06:21:39;;;;;;;2.03;1.73;;;;;;;19.73;98.96;98394.41;4141543;28;20376;-48
2022/09/07 06:23:42;;;;;;;2.15;1.60;;;;;;;19.99;99.05;98389.06;4157659;28;20715;-47
2022/09/07 06:25:47;;;;;;;3.25;2.13;;;;;;;20.17;99.08;98399.25;4159510;28;20197;-47
2022/09/07 06:27:50;;;;;;;2.80;2.00;;;;;;;20.42;97.42;98395.81;4149223;28;20224;-48
2022/09/07 06:29:52;;;;;;;4.07;2.65;;;;;;;20.28;96.90;98395.06;4151108;28;20240;-47
2022/09/07 06:31:54;;;;;;;3.25;1.63;;;;;;;20.37;95.37;98404.31;4158903;28;20216;-47
2022/09/07 06:34:15;;;;;;;3.42;1.90;;;;;;;20.44;95.72;98399.13;4156404;28;20228;-49
2022/09/07 06:36:20;;;;;;;3.00;1.75;;;;;;;20.37;96.28;98398.75;4185354;28;20257;-48
2022/09/07 06:38:21;;;;;;;2.35;1.42;;;;;;;20.13;97.08;98406.56;4158525;28;20330;-49
2022/09/07 06:40:23;;;;;;;7.25;2.78;;;;;;;20.52;97.85;98403.91;4150965;28;20864;-48
2022/09/07 06:42:25;;;;;;;5.47;1.70;;;;;;;20.71;97.32;98415.66;4159019;28;20205;-49
2022/09/07 06:44:26;;;;;;;5.22;2.05;;;;;;;20.67;94.73;98414.63;4170836;28;20252;-47
2022/09/07 06:46:28;;;;;;;6.22;1.95;;;;;;;20.76;94.94;98409.94;4156798;28;20205;-47
2022/09/07 06:48:54;;;;;;;4.43;1.85;;;;;;;21.06;93.80;98400.81;4156085;28;20258;-49
2022/09/07 06:51:00;;;;;;;6.43;1.27;;;;;;;21.02;92.85;98399.81;4158423;28;20196;-48
2022/09/07 06:53:02;;;;;;;2.92;1.70;;;;;;;21.06;91.53;98396.09;4161201;28;20215;-49
2022/09/07 06:55:26;;;;;;;9.27;1.92;;;;;;;21.16;92.28;98411.66;4168177;28;20242;-49
2022/09/07 06:57:28;;;;;;;3.55;1.48;;;;;;;21.22;90.99;98410.38;4186898;28;20257;-48
2022/09/07 06:59:29;;;;;;;2.58;1.55;;;;;;;20.85;92.70;98411.63;4154980;28;20205;-48
2022/09/07 07:01:32;;;;;;;3.08;1.70;;;;;;;21.40;92.75;98406.50;4154889;28;20209;-50
2022/09/07 07:03:34;;;;;;;3.75;1.23;;;;;;;21.36;91.40;98411.06;4156614;28;21014;-48
2022/09/07 07:05:36;;;;;;;3.38;1.58;;;;;;;21.60;90.34;98411.50;4158182;28;20208;-48
2022/09/07 07:07:37;;;;;;;2.55;1.75;;;;;;;21.69;90.05;98413.19;4168410;28;20267;-50
2022/09/07 07:09:40;;;;;;;2.95;1.30;;;;;;;21.79;89.58;98403.69;4152482;28;20744;-49
2022/09/07 07:11:43;;;;;;;2.30;1.50;;;;;;;22.24;87.65;98405.06;4155967;28;20235;-49
2022/09/07 07:13:45;;;;;;;3.30;1.40;;;;;;;22.42;87.93;98406.66;4165679;28;20261;-49
2022/09/07 07:15:47;;;;;;;3.10;2.00;;;;;;;22.44;86.94;98404.44;4151929;28;20262;-48
2022/09/07 07:17:48;;;;;;;3.25;1.50;;;;;;;22.14;87.94;98405.38;4156534;28;20267;-48
2022/09/07 07:20:01;;;;;;;2.08;1.52;;;;;;;22.31;88.27;98402.59;4153009;28;20670;-48
2022/09/07 07:22:02;;;;;;;2.53;1.30;;;;;;;22.34;88.22;98399.13;4156746;28;20200;-48
2022/09/07 07:24:24;;;;;;;3.50;1.48;;;;;;;22.74;87.39;98401.44;4166971;28;20745;-49
2022/09/07 07:26:26;;;;;;;3.78;1.48;;;;;;;22.99;85.18;98405.28;4156108;28;20215;-48
2022/09/07 07:28:27;;;;;;;7.28;1.42;;;;;;;23.20;84.64;98406.22;4153892;28;20230;-48
2022/09/07 07:31:00;;;;;;;7.60;1.50;;;;;;;22.84;85.16;98397.47;4166558;28;21251;-48
2022/09/07 07:33:08;;;;;;;4.55;2.08;;;;;;;22.74;85.25;98397.81;4167079;28;20212;-48
2022/09/07 07:35:10;;;;;;;9.70;1.60;;;;;;;23.22;85.33;98407.53;4154381;28;20209;-50
2022/09/07 07:37:14;;;;;;;4.85;1.67;;;;;;;23.25;84.41;98408.84;4150081;28;20251;-48
2022/09/07 07:39:15;;;;;;;3.33;1.25;;;;;;;23.80;82.82;98422.38;4166941;28;20224;-50
2022/09/07 07:41:37;;;;;;;7.85;1.70;;;;;;;22.79;83.99;98419.97;4156313;28;20294;-49
2022/09/07 07:44:03;;;;;;;2.60;1.67;;;;;;;22.86;83.01;98423.06;4140807;28;20236;-48
2022/09/07 07:46:11;;;;;;;4.47;1.95;;;;;;;22.56;85.04;98422.13;4153133;28;21545;-48
2022/09/07 07:48:15;;;;;;;3.13;1.40;;;;;;;22.10;86.64;98426.72;4156233;28;20265;-49
2022/09/07 07:50:17;;;;;;;6.13;1.58;;;;;;;22.25;86.60;98418.66;4161892;28;20211;-49
2022/09/07 07:52:37;;;;;;;4.60;1.70;;;;;;;22.46;86.61;98435.59;4154360;28;20208;-48
2022/09/07 07:54:59;;;;;;;2.45;1.70;;;;;;;22.97;84.77;98429.94;4151059;28;20210;-49
2022/09/07 07:57:07;;;;;;;4.53;1.30;;;;;;;22.73;84.73;98421.28;4157501;28;20246;-48
2022/09/07 07:59:14;;;;;;;2.83;1.83;;;;;;;22.94;84.26;98427.81;4169041;28;20254;-50
2022/09/07 08:01:16;;;;;;;3.40;1.55;;;;;;;22.81;85.37;98428.81;4156113;28;20231;-49
2022/09/07 08:03:19;;;;;;;3.83;1.35;;;;;;;22.75;86.30;98421.75;4172205;28;20208;-49
2022/09/07 08:05:20;;;;;;;4.10;1.75;;;;;;;22.44;85.93;98429.53;4152910;28;20209;-49
2022/09/07 08:07:22;;;;;;;4.55;1.70;;;;;;;22.55;87.13;98434.44;4154952;28;20296;-48
2022/09/07 08:09:24;;;;;;;3.30;1.48;;;;;;;22.70;87.47;98430.31;4170836;28;20204;-47
2022/09/07 08:11:26;;;;;;;4.00;1.38;;;;;;;22.69;84.98;98431.44;4161141;28;20206;-48
2022/09/07 08:13:32;;;;;;;6.75;2.03;;;;;;;23.06;84.24;98439.94;4188089;28;20611;-48
2022/09/07 08:15:44;;;;;;;4.30;1.73;;;;;;;22.85;86.04;98443.75;4167271;28;20204;-47
2022/09/07 08:17:46;;;;;;;2.65;1.75;;;;;;;22.69;84.82;98448.19;4169859;28;20254;-48
2022/09/07 08:19:48;;;;;;;4.80;1.55;;;;;;;22.61;84.93;98446.25;4154317;28;20303;-47
2022/09/07 08:21:50;;;;;;;2.58;1.73;;;;;;;23.15;84.13;98453.84;4168516;28;20712;-47
2022/09/07 08:23:52;;;;;;;4.60;1.70;;;;;;;23.55;81.96;98447.66;4187174;28;20213;-49
2022/09/07 08:25:55;;;;;;;2.80;2.35;;;;;;;23.50;82.19;98449.84;4168725;28;21174;-49
2022/09/07 08:27:56;;;;;;;2.65;1.60;;;;;;;23.57;82.32;98444.53;4152192;28;20223;-47
2022/09/07 08:29:58;;;;;;;3.33;2.13;;;;;;;23.48;83.91;98446.53;4158847;28;20208;-49
2022/09/07 08:32:01;;;;;;;4.18;2.00;;;;;;;24.30;79.98;98453.16;4186849;28;20661;-48
2022/09/07 08:34:03;;;;;;;4.63;1.95;;;;;;;24.50;79.06;98463.53;4156719;28;20209;-48
2022/09/07 08:36:06;;;;;;;2.97;1.42;;;;;;;24.78;77.84;98465.44;4155847;28;20204;-48
2022/09/07 08:38:08;;;;;;;3.30;1.77;;;;;;;24.76;77.53;98470.59;4172102;28;20230;-48
2022/09/07 08:40:19;;;;;;;7.45;1.67;;;;;;;24.99;77.15;98466.22;4156398;28;20589;-49
2022/09/07 08:42:44;;;;;;;2.92;1.63;;;;;;;24.78;77.32;98471.03;4153334;28;20209;-50
2022/09/07 08:45:05;;;;;;;2.42;1.63;;;;;;;24.60;78.03;98479.94;4166358;28;20207;-51
2022/09/07 08:47:27;;;;;;;3.10;1.40;;;;;;;25.11;78.15;98473.84;4154857;28;20196;-49
2022/09/07 08:49:37;;;;;;;2.78;1.63;;;;;;;24.85;76.38;98488.09;4168170;28;20204;-50
2022/09/07 08:51:46;;;;;;;4.63;1.60;;;;;;;24.45;76.90;98478.53;4171153;28;20709;-50
2022/09/07 08:53:49;;;;;;;2.05;1.45;;;;;;;23.59;78.48;98473.78;4173881;28;20596;-47
2022/09/07 08:56:31;;;;;;;5.88;1.48;;;;;;;24.13;78.43;98476.47;4143733;28;20205;-49
2022/09/07 08:58:47;;;;;;;3.58;1.40;;;;;;;24.32;77.63;98485.22;4154631;28;20239;-49
2022/09/07 09:00:50;;;;;;;3.53;1.73;;;;;;;24.71;76.85;98484.78;4153145;28;20220;-46
2022/09/07 09:03:29;;;;;;;4.93;1.45;;;;;;;25.25;74.99;98488.41;4171233;28;20208;-49
2022/09/07 09:05:57;;;;;;;1.88;1.20;;;;;;;25.03;73.51;98486.78;4161695;28;20989;-50
2022/09/07 09:08:02;;;;;;;1.52;1.00;;;;;;;25.47;73.26;98483.19;4146801;28;20797;-48
2022/09/07 09:10:09;;;;;;;3.20;1.30;;;;;;;25.16;73.24;98476.44;4185502;28;20206;-50
2022/09/07 09:12:19;;;;;;;4.07;2.00;;;;;;;25.13;73.86;98480.75;4188532;28;20293;-47
2022/09/07 09:14:42;;;;;;;6.30;1.75;;;;;;;24.25;74.28;98478.50;4171368;28;21219;-49
2022/09/07 09:16:54;;;;;;;4.88;1.67;;;;;;;24.58;74.95;98480.28;4165094;28;20314;-48
2022/09/07 09:19:18;;;;;;;3.00;1.48;;;;;;;25.05;75.82;98480.84;4152404;28;20231;-52
2022/09/07 09:21:20;;;;;;;2.47;1.45;;;;;;;25.04;73.17;98477.22;4169899;28;20204;-48
2022/09/07 09:23:27;;;;;;;2.60;1.38;;;;;;;24.80;74.23;98479.91;4137326;28;20209;-48
2022/09/07 09:25:33;;;;;;;3.35;1.50;;;;;;;25.23;74.75;98476.72;4168927;28;20211;-49
2022/09/07 09:27:35;;;;;;;3.60;2.40;;;;;;;25.59;74.44;98480.41;4151078;28;20196;-49
2022/09/07 09:29:37;;;;;;;3.08;1.25;;;;;;;25.51;73.59;98481.34;4170633;28;20709;-48
2022/09/07 09:31:39;;;;;;;2.72;1.58;;;;;;;25.33;74.17;98477.09;4168621;28;20876;-48
2022/09/07 09:33:41;;;;;;;3.63;1.40;;;;;;;25.72;72.24;98467.25;4167521;28;20215;-49
2022/09/07 09:35:44;;;;;;;2.72;1.70;;;;;;;25.98;72.53;98464.94;4161553;28;20714;-48
2022/09/07 09:37:46;;;;;;;3.55;1.15;;;;;;;25.57;70.79;98465.09;4154094;28;20250;-48
2022/09/07 09:39:56;;;;;;;4.97;2.88;;;;;;;24.85;72.61;98460.09;4170827;28;20204;-49
2022/09/07 09:42:06;;;;;;;3.50;1.40;;;;;;;25.16;71.95;98448.41;4162823;28;20212;-49
2022/09/07 09:44:14;;;;;;;2.17;1.27;;;;;;;25.50;72.25;98440.47;4151896;28;20196;-48
2022/09/07 09:46:19;;;;;;;3.17;1.30;;;;;;;26.12;71.32;98438.13;4152509;28;20638;-48
2022/09/07 09:48:31;;;;;;;2.35;1.80;;;;;;;26.20;71.43;98442.78;4160170;28;20238;-49
2022/09/07 09:50:35;;;;;;;6.60;1.80;;;;;;;25.89;70.81;98437.00;4189278;28;20213;-48
2022/09/07 09:52:58;;;;;;;2.33;1.77;;;;;;;25.79;71.01;98431.81;4158954;28;20732;-50